createdAt,value
2022-11-17T00:01:25.884Z,95966.28
2022-11-17T00:03:54.324Z,95953.28
2022-11-17T00:06:22.906Z,95949.38
2022-11-17T00:08:53.440Z,95948.13
2022-11-17T00:11:23.233Z,95939.50
2022-11-17T00:14:09.484Z,95939.50
2022-11-17T00:16:37.924Z,95939.50
2022-11-17T00:19:23.795Z,95937.53
2022-11-17T00:21:53.631Z,95938.69
2022-11-17T00:24:23.677Z,95937.53
2022-11-17T00:27:02.610Z,95933.97
2022-11-17T00:29:31.921Z,95938.69
2022-11-17T00:32:17.745Z,95924.53
2022-11-17T00:34:46.160Z,95924.53
2022-11-17T00:37:16.633Z,95915.84
2022-11-17T00:39:45.044Z,95909.16
2022-11-17T00:42:14.793Z,95893.78
2022-11-17T00:44:43.248Z,95884.34
2022-11-17T00:47:11.808Z,95889.84
2022-11-17T00:49:40.218Z,95881.56
2022-11-17T00:52:08.692Z,95883.53
2022-11-17T00:54:37.336Z,95877.22
2022-11-17T00:57:06.004Z,95887.09
2022-11-17T00:59:35.748Z,95885.50
2022-11-17T01:02:04.191Z,95878.81
2022-11-17T01:04:32.604Z,95890.66
2022-11-17T01:07:01.092Z,95886.72
2022-11-17T01:09:29.618Z,95886.28
2022-11-17T01:11:58.052Z,95887.09
2022-11-17T01:14:29.139Z,95884.34
2022-11-17T01:16:59.407Z,95877.22
2022-11-17T01:19:27.882Z,95876.06
2022-11-17T01:21:56.339Z,95866.19
2022-11-17T01:24:24.762Z,95869.38
2022-11-17T01:26:53.423Z,95868.59
2022-11-17T01:29:21.931Z,95870.09
2022-11-17T01:31:52.031Z,95862.28
2022-11-17T01:34:21.875Z,95845.72
2022-11-17T01:37:07.653Z,95849.66
2022-11-17T01:39:36.126Z,95838.63
2022-11-17T01:42:06.100Z,95829.53
2022-11-17T01:45:05.829Z,95822.06
2022-11-17T01:47:40.540Z,95824.03
2022-11-17T01:50:18.742Z,95810.25
2022-11-17T01:52:50.094Z,95814.16
2022-11-17T01:55:22.117Z,95814.59
2022-11-17T01:57:54.093Z,95803.06
2022-11-17T02:00:23.033Z,95803.13
2022-11-17T02:02:54.499Z,95803.94
2022-11-17T02:05:35.432Z,95798.41
2022-11-17T02:08:06.805Z,95788.53
2022-11-17T02:10:36.842Z,95786.59
2022-11-17T02:13:05.887Z,95777.06
2022-11-17T02:15:34.358Z,95774.38
2022-11-17T02:18:03.784Z,95765.31
2022-11-17T02:20:45.093Z,95753.50
2022-11-17T02:23:58.484Z,95754.28
2022-11-17T02:26:51.692Z,95743.25
2022-11-17T02:29:29.739Z,95743.25
2022-11-17T02:32:05.783Z,95736.16
2022-11-17T02:34:43.503Z,95731.78
2022-11-17T02:37:21.612Z,95727.88
2022-11-17T02:39:58.561Z,95729.47
2022-11-17T02:42:45.617Z,95714.88
2022-11-17T02:45:22.176Z,95705.38
2022-11-17T02:47:54.437Z,95706.97
2022-11-17T02:50:28.591Z,95699.88
2022-11-17T02:52:57.529Z,95701.47
2022-11-17T02:55:27.583Z,95695.94
2022-11-17T02:57:56.023Z,95690.44
2022-11-17T03:00:28.032Z,95665.25
2022-11-17T03:03:18.731Z,95662.84
2022-11-17T03:05:58.385Z,95658.13
2022-11-17T03:08:33.602Z,95669.16
2022-11-17T03:11:04.587Z,95667.22
2022-11-17T03:13:44.175Z,95631.34
2022-11-17T03:16:26.121Z,95630.56
2022-11-17T03:19:03.294Z,95631.34
2022-11-17T03:21:37.795Z,95620.31
2022-11-17T03:24:12.723Z,95636.88
2022-11-17T03:26:46.040Z,95643.19
2022-11-17T03:29:18.599Z,95650.66
2022-11-17T03:31:53.343Z,95658.94
2022-11-17T03:34:25.619Z,95677.06
2022-11-17T03:36:59.467Z,95689.25
2022-11-17T03:39:33.118Z,95708.56
2022-11-17T03:42:06.081Z,95709.38
2022-11-17T03:44:38.254Z,95716.47
2022-11-17T03:47:13.575Z,95712.91
2022-11-17T03:49:47.232Z,95716.47
2022-11-17T03:52:16.083Z,95716.47
2022-11-17T03:54:44.630Z,95705.44
2022-11-17T03:57:16.649Z,95709.38
2022-11-17T03:59:53.962Z,95710.16
2022-11-17T04:02:25.818Z,95716.47
2022-11-17T04:05:09.216Z,95727.50
2022-11-17T04:07:41.093Z,95729.03
2022-11-17T04:10:11.733Z,95746.00
2022-11-17T04:13:12.404Z,95736.94
2022-11-17T04:15:59.165Z,95728.66
2022-11-17T04:18:29.166Z,95704.66
2022-11-17T04:20:58.639Z,95699.13
2022-11-17T04:23:28.026Z,95685.72
2022-11-17T04:26:15.159Z,95684.53
2022-11-17T04:28:45.744Z,95704.66
2022-11-17T04:31:15.976Z,95700.72
2022-11-17T04:33:47.361Z,95696.38
2022-11-17T04:36:17.960Z,95699.13
2022-11-17T04:38:48.264Z,95692.81
2022-11-17T04:41:35.833Z,95688.09
2022-11-17T04:44:06.562Z,95689.25
2022-11-17T04:46:36.770Z,95670.75
2022-11-17T04:49:07.503Z,95657.78
2022-11-17T04:51:36.751Z,95645.16
2022-11-17T04:54:06.855Z,95629.41
2022-11-17T04:56:35.419Z,95639.63
2022-11-17T04:59:04.550Z,95648.69
2022-11-17T05:01:33.495Z,95642.38
2022-11-17T05:04:03.596Z,95643.19
2022-11-17T05:06:35.316Z,95639.63
2022-11-17T05:09:07.635Z,95641.59
2022-11-17T05:11:54.070Z,95631.34
2022-11-17T05:14:24.263Z,95629.75
2022-11-17T05:17:11.650Z,95642.38
2022-11-17T05:19:42.015Z,95636.88
2022-11-17T05:22:27.501Z,95636.88
2022-11-17T05:24:56.096Z,95648.69
2022-11-17T05:27:25.906Z,95644.34
2022-11-17T05:29:54.820Z,95631.34
2022-11-17T05:32:23.251Z,95637.66
2022-11-17T05:34:51.632Z,95637.66
2022-11-17T05:37:21.395Z,95647.91
2022-11-17T05:39:49.814Z,95642.38
2022-11-17T05:42:18.330Z,95653.41
2022-11-17T05:44:48.318Z,95658.13
2022-11-17T05:47:16.914Z,95659.72
2022-11-17T05:49:45.343Z,95665.59
2022-11-17T05:52:13.964Z,95673.88
2022-11-17T05:54:43.744Z,95675.47
2022-11-17T05:57:15.787Z,95676.63
2022-11-17T05:59:47.676Z,95668.38
2022-11-17T06:02:19.817Z,95681.00
2022-11-17T06:04:50.718Z,95663.66
2022-11-17T06:07:19.566Z,95657.34
2022-11-17T06:09:49.347Z,95660.53
2022-11-17T06:12:17.786Z,95664.44
2022-11-17T06:14:46.236Z,95658.94
2022-11-17T06:17:22.686Z,95662.47
2022-11-17T06:19:56.512Z,95678.22
2022-11-17T06:22:26.592Z,95662.47
2022-11-17T06:24:57.230Z,95667.22
2022-11-17T06:27:26.759Z,95664.88
2022-11-17T06:29:58.764Z,95666.03
2022-11-17T06:32:29.029Z,95665.25
2022-11-17T06:34:58.016Z,95664.88
2022-11-17T06:37:26.440Z,95677.06
2022-11-17T06:39:56.167Z,95687.31
2022-11-17T06:42:44.791Z,95688.09
2022-11-17T06:45:13.539Z,95697.16
2022-11-17T06:47:41.967Z,95696.38
2022-11-17T06:50:11.209Z,95699.13
2022-11-17T06:52:39.826Z,95694.78
2022-11-17T06:55:10.362Z,95710.97
2022-11-17T06:57:38.766Z,95704.66
2022-11-17T07:00:08.597Z,95708.56
2022-11-17T07:02:37.758Z,95704.66
2022-11-17T07:05:06.823Z,95704.66
2022-11-17T07:07:35.507Z,95700.72
2022-11-17T07:10:04.115Z,95700.72
2022-11-17T07:12:34.161Z,95701.88
2022-11-17T07:15:02.666Z,95704.66
2022-11-17T07:17:32.934Z,95700.72
2022-11-17T07:20:01.458Z,95698.34
2022-11-17T07:22:29.880Z,95700.72
2022-11-17T07:24:58.398Z,95684.19
2022-11-17T07:27:26.900Z,95700.72
2022-11-17T07:29:56.745Z,95710.22
2022-11-17T07:32:25.749Z,95691.34
2022-11-17T07:34:54.188Z,95681.91
2022-11-17T07:37:22.696Z,95681.53
2022-11-17T07:39:51.161Z,95690.63
2022-11-17T07:42:19.645Z,95693.00
2022-11-17T07:44:55.965Z,95689.09
2022-11-17T07:47:24.417Z,95688.72
2022-11-17T07:49:52.900Z,95689.94
2022-11-17T07:52:21.435Z,95677.31
2022-11-17T07:54:49.943Z,95675.00
2022-11-17T07:57:18.404Z,95680.94
2022-11-17T07:59:47.023Z,95676.63
2022-11-17T08:02:16.816Z,95683.75
2022-11-17T08:04:45.325Z,95677.44
2022-11-17T08:07:13.802Z,95671.19
2022-11-17T08:09:42.356Z,95653.03
2022-11-17T08:12:10.807Z,95668.06
2022-11-17T08:14:39.320Z,95669.66
2022-11-17T08:17:07.757Z,95681.47
2022-11-17T08:19:37.615Z,95672.78
2022-11-17T08:22:06.102Z,95676.69
2022-11-17T08:24:34.589Z,95677.44
2022-11-17T08:27:03.189Z,95678.16
2022-11-17T08:29:31.683Z,95675.00
2022-11-17T08:32:00.094Z,95678.91
2022-11-17T08:34:28.679Z,95680.44
2022-11-17T08:36:58.578Z,95689.88
2022-11-17T08:39:27.100Z,95701.72
2022-11-17T08:41:55.549Z,95683.56
2022-11-17T08:44:24.022Z,95689.09
2022-11-17T08:46:52.544Z,95689.09
2022-11-17T08:49:21.009Z,95702.06
2022-11-17T08:51:49.463Z,95694.16
2022-11-17T08:54:19.382Z,95699.13
2022-11-17T08:56:47.907Z,95681.72
2022-11-17T08:59:16.497Z,95695.09
2022-11-17T09:01:45.005Z,95693.50
2022-11-17T09:04:13.528Z,95702.56
2022-11-17T09:06:41.961Z,95692.75
2022-11-17T09:09:10.457Z,95707.78
2022-11-17T09:11:40.353Z,95720.47
2022-11-17T09:14:08.898Z,95727.56
2022-11-17T09:16:37.418Z,95734.31
2022-11-17T09:19:06.830Z,95715.81
2022-11-17T09:21:35.263Z,95731.19
2022-11-17T09:24:03.717Z,95729.22
2022-11-17T09:26:32.414Z,95738.31
2022-11-17T09:29:03.799Z,95728.88
2022-11-17T09:31:32.347Z,95722.19
2022-11-17T09:34:04.901Z,95726.91
2022-11-17T09:36:34.719Z,95747.00
2022-11-17T09:39:03.154Z,95745.03
2022-11-17T09:41:36.767Z,95752.94
2022-11-17T09:44:16.496Z,95746.63
2022-11-17T09:46:57.547Z,95747.44
2022-11-17T09:49:35.734Z,95744.69
2022-11-17T09:52:11.681Z,95757.31
2022-11-17T09:54:44.701Z,95739.59
2022-11-17T09:57:22.838Z,95750.63
2022-11-17T10:00:04.693Z,95757.75
2022-11-17T10:02:34.327Z,95735.66
2022-11-17T10:05:02.988Z,95753.81
2022-11-17T10:07:35.299Z,95746.69
2022-11-17T10:10:06.909Z,95758.53
2022-11-17T10:12:43.886Z,95753.81
2022-11-17T10:15:26.565Z,95759.34
2022-11-17T10:17:54.997Z,95766.44
2022-11-17T10:20:23.864Z,95760.13
2022-11-17T10:22:54.650Z,95764.84
2022-11-17T10:25:38.602Z,95766.00
2022-11-17T10:28:09.861Z,95782.06
2022-11-17T10:30:39.637Z,95770.53
2022-11-17T10:33:08.160Z,95775.63
2022-11-17T10:35:37.306Z,95773.59
2022-11-17T10:38:14.410Z,95769.16
2022-11-17T10:40:49.567Z,95761.56
2022-11-17T10:43:24.191Z,95766.59
2022-11-17T10:45:56.360Z,95759.88
2022-11-17T10:48:29.995Z,95756.25
2022-11-17T10:51:05.744Z,95748.75
2022-11-17T10:53:44.833Z,95751.53
2022-11-17T10:56:16.876Z,95740.50
2022-11-17T10:59:04.837Z,95746.00
2022-11-17T11:01:36.586Z,95753.84
2022-11-17T11:04:07.068Z,95760.09
2022-11-17T11:06:36.243Z,95759.28
2022-11-17T11:09:10.673Z,95753.34
2022-11-17T11:11:45.006Z,95751.38
2022-11-17T11:14:19.341Z,95751.81
2022-11-17T11:16:51.258Z,95756.16
2022-11-17T11:19:21.445Z,95741.94
2022-11-17T11:22:19.836Z,95751.75
2022-11-17T11:24:56.040Z,95751.38
2022-11-17T11:27:49.405Z,95748.34
2022-11-17T11:30:19.595Z,95753.13
2022-11-17T11:33:02.844Z,95755.56
2022-11-17T11:35:51.513Z,95763.16
2022-11-17T11:38:36.561Z,95763.59
2022-11-17T11:41:27.337Z,95762.41
2022-11-17T11:44:14.425Z,95764.44
2022-11-17T11:46:54.195Z,95757.41
2022-11-17T11:49:34.021Z,95758.22
2022-11-17T11:52:06.372Z,95761.41
2022-11-17T11:54:40.763Z,95755.09
2022-11-17T11:57:15.376Z,95766.13
2022-11-17T11:59:53.334Z,95758.22
2022-11-17T12:02:30.104Z,95757.34
2022-11-17T12:05:16.394Z,95755.75
2022-11-17T12:07:49.527Z,95752.19
2022-11-17T12:10:28.916Z,95747.84
2022-11-17T12:12:58.269Z,95748.19
2022-11-17T12:15:35.469Z,95759.59
2022-11-17T12:18:13.418Z,95749.38
2022-11-17T12:20:55.681Z,95756.38
2022-11-17T12:23:44.460Z,95742.94
2022-11-17T12:26:23.245Z,95750.06
2022-11-17T12:29:24.815Z,95737.44
2022-11-17T12:31:54.281Z,95748.41
2022-11-17T12:34:26.244Z,95760.16
2022-11-17T12:37:21.757Z,95747.53
2022-11-17T12:39:58.462Z,95747.91
2022-11-17T12:42:27.457Z,95753.78
2022-11-17T12:45:10.323Z,95756.91
2022-11-17T12:47:40.553Z,95760.81
2022-11-17T12:50:41.342Z,95756.91
2022-11-17T12:53:33.273Z,95756.91
2022-11-17T12:56:42.206Z,95754.13
2022-11-17T12:59:29.484Z,95766.41
2022-11-17T13:02:05.565Z,95767.63
2022-11-17T13:04:38.284Z,95760.97
2022-11-17T13:07:08.729Z,95764.06
2022-11-17T13:09:38.560Z,95756.16
2022-11-17T13:12:08.616Z,95755.38
2022-11-17T13:14:52.172Z,95755.00
2022-11-17T13:17:22.880Z,95762.78
2022-11-17T13:19:59.536Z,95753.56
2022-11-17T13:22:28.073Z,95757.47
2022-11-17T13:24:58.153Z,95752.34
2022-11-17T13:27:28.585Z,95757.84
2022-11-17T13:30:14.220Z,95758.22
2022-11-17T13:32:43.428Z,95752.25
2022-11-17T13:35:24.081Z,95759.38
2022-11-17T13:38:03.323Z,95764.50
2022-11-17T13:40:35.561Z,95757.03
2022-11-17T13:43:05.207Z,95750.38
2022-11-17T13:45:33.969Z,95746.03
2022-11-17T13:48:02.462Z,95753.41
2022-11-17T13:50:37.957Z,95750.22
2022-11-17T13:53:22.594Z,95756.69
2022-11-17T13:55:53.505Z,95753.06
2022-11-17T13:58:27.646Z,95752.69
2022-11-17T14:00:58.280Z,95759.28
2022-11-17T14:03:37.579Z,95759.22
2022-11-17T14:06:08.041Z,95756.75
2022-11-17T14:08:37.665Z,95756.03
2022-11-17T14:11:14.301Z,95759.97
2022-11-17T14:13:45.417Z,95761.00
2022-11-17T14:16:23.451Z,95755.38
2022-11-17T14:19:01.425Z,95755.56
2022-11-17T14:21:30.716Z,95762.03
2022-11-17T14:24:05.684Z,95753.56
2022-11-17T14:26:35.569Z,95759.16
2022-11-17T14:29:04.074Z,95758.88
2022-11-17T14:31:33.236Z,95758.22
2022-11-17T14:34:01.786Z,95757.16
2022-11-17T14:36:31.988Z,95754.88
2022-11-17T14:39:02.181Z,95745.50
2022-11-17T14:41:30.734Z,95751.09
2022-11-17T14:44:00.616Z,95751.16
2022-11-17T14:46:29.119Z,95746.53
2022-11-17T14:48:57.596Z,95750.50
2022-11-17T14:51:26.142Z,95747.47
2022-11-17T14:53:55.143Z,95747.91
2022-11-17T14:56:24.893Z,95741.22
2022-11-17T14:58:58.291Z,95744.41
2022-11-17T15:01:31.034Z,95732.66
2022-11-17T15:04:27.048Z,95735.84
2022-11-17T15:06:49.836Z,95733.53
2022-11-17T15:09:20.379Z,95736.75
2022-11-17T15:11:48.965Z,95741.88
2022-11-17T15:14:17.932Z,95733.63
2022-11-17T15:16:48.278Z,95740.72
2022-11-17T15:19:16.961Z,95738.34
2022-11-17T15:21:45.451Z,95732.81
2022-11-17T15:24:14.386Z,95719.03
2022-11-17T15:26:43.194Z,95719.03
2022-11-17T15:29:15.173Z,95721.78
2022-11-17T15:31:44.472Z,95726.16
2022-11-17T15:34:19.989Z,95725.72
2022-11-17T15:36:49.041Z,95728.47
2022-11-17T15:39:18.377Z,95731.94
2022-11-17T15:41:48.758Z,95738.34
2022-11-17T15:44:18.635Z,95737.53
2022-11-17T15:46:47.973Z,95744.28
2022-11-17T15:49:18.463Z,95739.19
2022-11-17T15:51:47.810Z,95742.81
2022-11-17T15:54:20.351Z,95738.53
2022-11-17T15:56:50.832Z,95735.47
2022-11-17T15:59:19.773Z,95739.41
2022-11-17T16:01:48.724Z,95733.09
2022-11-17T16:04:18.558Z,95723.59
2022-11-17T16:06:47.705Z,95730.69
2022-11-17T16:09:17.110Z,95729.91
2022-11-17T16:11:46.149Z,95729.09
2022-11-17T16:14:15.289Z,95732.66
2022-11-17T16:16:45.905Z,95724.38
2022-11-17T16:19:14.879Z,95729.91
2022-11-17T16:21:44.946Z,95729.91
2022-11-17T16:24:13.496Z,95731.50
2022-11-17T16:26:42.148Z,95721.25
2022-11-17T16:29:10.820Z,95721.25
2022-11-17T16:31:39.818Z,95723.66
2022-11-17T16:34:12.592Z,95722.84
2022-11-17T16:36:42.935Z,95719.28
2022-11-17T16:39:14.715Z,95718.13
2022-11-17T16:41:46.290Z,95725.25
2022-11-17T16:44:16.410Z,95720.53
2022-11-17T16:46:46.770Z,95726.84
2022-11-17T16:49:17.365Z,95726.03
2022-11-17T16:51:48.404Z,95717.41
2022-11-17T16:54:19.098Z,95721.31
2022-11-17T16:56:47.530Z,95715.81
2022-11-17T16:59:16.819Z,95719.34
2022-11-17T17:01:45.604Z,95715.00
2022-11-17T17:04:14.168Z,95718.56
2022-11-17T17:06:44.554Z,95715.00
2022-11-17T17:09:15.633Z,95718.56
2022-11-17T17:11:45.773Z,95710.28
2022-11-17T17:14:15.842Z,95709.84
2022-11-17T17:16:44.481Z,95713.41
2022-11-17T17:19:14.928Z,95705.50
2022-11-17T17:21:44.312Z,95702.31
2022-11-17T17:24:12.973Z,95706.25
2022-11-17T17:26:41.763Z,95706.59
2022-11-17T17:29:12.551Z,95712.50
2022-11-17T17:31:43.167Z,95718.00
2022-11-17T17:34:13.797Z,95708.13
2022-11-17T17:36:42.371Z,95710.91
2022-11-17T17:39:15.376Z,95721.94
2022-11-17T17:41:45.816Z,95716.41
2022-11-17T17:44:18.379Z,95721.13
2022-11-17T17:46:48.301Z,95720.34
2022-11-17T17:49:18.846Z,95726.63
2022-11-17T17:51:48.091Z,95725.84
2022-11-17T17:54:18.749Z,95731.34
2022-11-17T17:56:47.694Z,95731.34
2022-11-17T17:59:18.244Z,95731.34
2022-11-17T18:01:47.999Z,95731.34
2022-11-17T18:04:17.166Z,95734.13
2022-11-17T18:06:47.872Z,95731.34
2022-11-17T18:09:19.321Z,95729.75
2022-11-17T18:11:50.015Z,95725.06
2022-11-17T18:14:24.326Z,95728.16
2022-11-17T18:16:53.498Z,95725.84
2022-11-17T18:19:22.131Z,95736.09
2022-11-17T18:21:50.840Z,95732.53
2022-11-17T18:24:19.534Z,95736.88
2022-11-17T18:26:48.087Z,95734.13
2022-11-17T18:29:19.602Z,95732.53
2022-11-17T18:31:50.532Z,95732.97
2022-11-17T18:34:21.704Z,95741.66
2022-11-17T18:36:50.643Z,95737.38
2022-11-17T18:39:19.386Z,95744.13
2022-11-17T18:41:48.515Z,95746.88
2022-11-17T18:44:19.348Z,95730.75
2022-11-17T18:46:49.309Z,95737.88
2022-11-17T18:49:18.072Z,95730.75
2022-11-17T18:51:46.864Z,95730.75
2022-11-17T18:54:15.341Z,95723.66
2022-11-17T18:56:44.523Z,95736.63
2022-11-17T18:59:13.442Z,95728.72
2022-11-17T19:01:43.543Z,95728.72
2022-11-17T19:04:15.658Z,95727.56
2022-11-17T19:06:44.238Z,95737.81
2022-11-17T19:09:13.440Z,95737.00
2022-11-17T19:11:42.296Z,95748.03
2022-11-17T19:14:10.839Z,95756.31
2022-11-17T19:16:44.013Z,95754.34
2022-11-17T19:19:15.499Z,95755.16
2022-11-17T19:21:44.580Z,95761.47
2022-11-17T19:24:13.258Z,95753.97
2022-11-17T19:26:42.733Z,95769.38
2022-11-17T19:29:16.711Z,95779.59
2022-11-17T19:31:46.585Z,95778.00
2022-11-17T19:34:16.680Z,95784.31
2022-11-17T19:36:45.508Z,95781.56
2022-11-17T19:39:15.217Z,95785.91
2022-11-17T19:41:45.056Z,95791.44
2022-11-17T19:44:13.810Z,95793.03
2022-11-17T19:46:43.151Z,95799.72
2022-11-17T19:49:12.568Z,95804.06
2022-11-17T19:51:42.441Z,95823.38
2022-11-17T19:54:13.526Z,95825.31
2022-11-17T19:56:42.164Z,95827.28
2022-11-17T19:59:15.778Z,95824.16
2022-11-17T20:01:46.208Z,95824.97
2022-11-17T20:04:14.849Z,95822.63
2022-11-17T20:06:44.937Z,95836.06
2022-11-17T20:09:15.509Z,95841.16
2022-11-17T20:11:44.512Z,95851.03
2022-11-17T20:14:14.347Z,95843.53
2022-11-17T20:16:42.890Z,95842.38
2022-11-17T20:19:12.249Z,95843.53
2022-11-17T20:21:40.825Z,95852.25
2022-11-17T20:24:11.041Z,95848.34
2022-11-17T20:26:40.953Z,95853.84
2022-11-17T20:29:09.731Z,95849.94
2022-11-17T20:31:38.257Z,95856.25
2022-11-17T20:34:06.866Z,95849.94
2022-11-17T20:36:35.709Z,95851.88
2022-11-17T20:39:06.248Z,95852.19
2022-11-17T20:41:36.185Z,95857.63
2022-11-17T20:44:05.114Z,95851.69
2022-11-17T20:46:33.812Z,95861.91
2022-11-17T20:49:02.535Z,95878.09
2022-11-17T20:51:32.218Z,95875.78
2022-11-17T20:54:00.781Z,95878.09
2022-11-17T20:56:29.238Z,95882.88
2022-11-17T20:58:59.041Z,95886.06
2022-11-17T21:01:27.788Z,95891.59
2022-11-17T21:03:56.389Z,95889.28
2022-11-17T21:06:24.894Z,95895.59
2022-11-17T21:08:53.914Z,95890.88
2022-11-17T21:11:41.345Z,95888.09
2022-11-17T21:14:12.973Z,95886.94
2022-11-17T21:16:44.354Z,95895.22
2022-11-17T21:19:12.877Z,95903.50
2022-11-17T21:21:41.383Z,95897.97
2022-11-17T21:24:10.368Z,95897.97
2022-11-17T21:26:38.994Z,95898.78
2022-11-17T21:29:07.477Z,95907.84
2022-11-17T21:31:37.348Z,95902.69
2022-11-17T21:34:07.350Z,95909.38
2022-11-17T21:36:36.661Z,95905.47
2022-11-17T21:39:05.666Z,95914.53
2022-11-17T21:41:35.711Z,95920.06
2022-11-17T21:44:04.857Z,95924.75
2022-11-17T21:46:36.102Z,95918.44
2022-11-17T21:49:06.157Z,95926.72
2022-11-17T21:51:38.546Z,95918.44
2022-11-17T21:54:09.690Z,95914.09
2022-11-17T21:56:38.560Z,95915.25
2022-11-17T21:59:11.030Z,95922.38
2022-11-17T22:01:40.026Z,95929.47
2022-11-17T22:04:10.122Z,95929.47
2022-11-17T22:06:39.617Z,95931.81
2022-11-17T22:09:08.191Z,95929.47
2022-11-17T22:11:37.528Z,95934.19
2022-11-17T22:14:08.761Z,95936.53
2022-11-17T22:16:38.060Z,95939.72
2022-11-17T22:19:07.856Z,95938.91
2022-11-17T22:21:38.209Z,95953.88
2022-11-17T22:24:09.188Z,95957.44
2022-11-17T22:26:38.652Z,95968.09
2022-11-17T22:29:08.555Z,95968.09
2022-11-17T22:31:37.068Z,95968.09
2022-11-17T22:34:05.636Z,95978.34
2022-11-17T22:36:34.242Z,95971.22
2022-11-17T22:39:04.601Z,95964.91
2022-11-17T22:41:33.206Z,95970.41
2022-11-17T22:44:01.845Z,95975.13
2022-11-17T22:46:30.545Z,95974.34
2022-11-17T22:48:59.588Z,95968.03
2022-11-17T22:51:45.657Z,95967.22
2022-11-17T22:54:15.502Z,95962.44
2022-11-17T22:56:44.027Z,95962.34
2022-11-17T22:59:12.474Z,95957.19
2022-11-17T23:01:40.986Z,95951.69
2022-11-17T23:04:09.851Z,95951.25
2022-11-17T23:06:38.394Z,95944.56
2022-11-17T23:09:06.980Z,95931.94
2022-11-17T23:11:38.392Z,95928.38
2022-11-17T23:14:08.571Z,95938.63
2022-11-17T23:16:37.427Z,95922.06
2022-11-17T23:19:07.137Z,95915.75
2022-11-17T23:21:35.594Z,95914.16
2022-11-17T23:24:05.269Z,95911.03
2022-11-17T23:26:33.750Z,95902.31
2022-11-17T23:29:03.594Z,95896.00
2022-11-17T23:31:32.118Z,95891.28
2022-11-17T23:34:00.606Z,95889.69
2022-11-17T23:36:29.165Z,95893.25
2022-11-17T23:38:57.794Z,95882.59
2022-11-17T23:41:26.437Z,95882.59
2022-11-17T23:43:55.305Z,95878.66
2022-11-17T23:46:27.256Z,95868.81
2022-11-17T23:48:56.157Z,95860.53
2022-11-17T23:51:26.671Z,95858.94
2022-11-17T23:53:55.130Z,95856.97
2022-11-17T23:56:23.586Z,95858.94
2022-11-17T23:58:52.393Z,95850.66
